Portada
METAR-TAF:

METAR-TAF

Aeroports :

Schaffen

Diest, Bèlgica

latitud: 51-00N, longitud: 005-04E, altitud: 30 m

Observació

L'informe es va fer fa 32 minuts, a les 04:25 UTC
Vent 3 kt del Sud
Temperatura 12°C
Humitat 88%
Pressió 1008 hPa
Visibilitat 10 km o més

METAR: EBDT 110425Z AUTO 18003KT 9999 OVC100/// 12/10 Q1008 BLU

Hora: 06:57 (04:57 UTC)

Pronòstic

L'informe es va fer fa 16 hores i 51 minuts, a les 12:06 UTC
Pronòstic vàlid del 10 a les 13 UTC al 10 a les 22 UTC
Vent 10 kt del Sud-Oest
Visibilitat 10 km o més
Núvols disperses a una alçada de 3400 ft
Probabilitat 30% :
Temporalment
l' 10 a les 13 UTC al 10 a les 16 UTC
Vent 12 kt del Sud-Oest amb ràfegues de 23 kt
Visibilitat: 8000 m
Núvols disperses a una alçada de 2600 ft
xàfecs de pluja

TAF: EBDT 101206Z 1013/1022 22010KT 9999 SCT034 PROB30 TEMPO 1013/1016 22012G23KT 8000 -SHRA SCT026

Observacions i pronòstics meteorològics de més de 4000 aeroports (METAR i TAF).

Les estacions disponibles són els punts grocs i vermells al mapa.

Posi el ratolí al punt desitjat per veure el nom de l'estació.

Feu clic per veure les observacions i els pronòstics meteorològics.

Per canviar el mapa: feu clic els botons verds amb una creu de color negre per apropar; al botó verd amb un guió per allunyar la imatge; o en les fletxes verdes per a mapes adjacents.


METAR-TAF: